ID Time Temp Humidity Light PM2.5 PM10 Voltage Extra Firmware Position Fcnt TTN version Gateways Distance RSSI LSNR Radiosettings
2026-05-07 17:28:57 17.375°C 57.0625% 3.36V v5 52.0941 / 5.12531 1081 ttn.v3 0.374km -114 2 867.1MHz, SF9BW125, 4/5CR
1.893km -109 -9.5 867.1MHz, SF9BW125, 4/5CR
- -114 -13.25 867.1MHz, SF9BW125, 4/5CR
2026-05-07 17:13:08 17.375°C 57.6875% 3.36V v5 52.0941 / 5.12531 1080 ttn.v3 0.374km -120 1 868.1MHz, SF9BW125, 4/5CR
- -115 -13.75 868.1MHz, SF9BW125, 4/5CR
2026-05-07 16:57:20 17.0625°C 58% 3.36V v5 52.0941 / 5.12531 1079 ttn.v3 0.374km -117 0.5 867.9MHz, SF9BW125, 4/5CR
1.893km -110 -5 867.9MHz, SF9BW125, 4/5CR
2026-05-07 16:41:33 16.625°C 58.0625% 3.36V v5 52.0941 / 5.12531 1078 ttn.v3 0.374km -117 -1.5 868.5MHz, SF9BW125, 4/5CR
2026-05-07 16:25:45 16.4375°C 59.4375% 3.36V v5 52.0941 / 5.12531 1077 ttn.v3 0.374km -115 2.5 867.7MHz, SF9BW125, 4/5CR
- -121 -6 867.7MHz, SF9BW125, 4/5CR
1.893km -107 -8.75 867.7MHz, SF9BW125, 4/5CR
- -113 -14 867.7MHz, SF9BW125, 4/5CR
2026-05-07 16:09:57 16.5625°C 57.8125% 3.36V v5 52.0941 / 5.12531 1076 ttn.v3 0.374km -115 1 868.3MHz, SF9BW125, 4/5CR
2026-05-07 15:54:09 17.1875°C 56.625% 3.36V v5 52.0941 / 5.12531 1075 ttn.v3 0.374km -115 -1 867.5MHz, SF9BW125, 4/5CR
2026-05-07 15:38:21 17.1875°C 57% 3.36V v5 52.0941 / 5.12531 1074 ttn.v3 0.374km -119 0.2 868.1MHz, SF9BW125, 4/5CR
2026-05-07 15:22:33 17°C 57.1875% 3.36V v5 52.0941 / 5.12531 1073 ttn.v3 0.374km -117 1 867.3MHz, SF9BW125, 4/5CR
2026-05-07 15:06:45 16.8125°C 58.625% 3.36V v5 52.0941 / 5.12531 1072 ttn.v3 0.374km -119 -1.5 868.5MHz, SF9BW125, 4/5CR
2026-05-07 14:50:57 17.125°C 57.1875% 3.36V v5 52.0941 / 5.12531 1071 ttn.v3 0.374km -120 1.5 867.1MHz, SF9BW125, 4/5CR
1.893km -110 -8 867.1MHz, SF9BW125, 4/5CR
2026-05-07 14:35:09 17.1875°C 55.8125% 3.36V v5 52.0941 / 5.12531 1070 ttn.v3 0.374km -115 0.5 868.3MHz, SF9BW125, 4/5CR
2026-05-07 14:19:20 18.5625°C 52.5% 3.35V v5 52.0941 / 5.12531 1069 ttn.v3 0.374km -117 2.2 867.9MHz, SF9BW125, 4/5CR
1.893km -108 -5.25 867.9MHz, SF9BW125, 4/5CR
2026-05-07 14:03:31 20.625°C 48.625% 3.35V v5 52.0941 / 5.12531 1068 ttn.v3 0.374km -119 1.5 868.1MHz, SF9BW125, 4/5CR
2026-05-07 13:47:42 19.5625°C 53% 3.36V v5 52.0941 / 5.12531 1067 ttn.v3 0.374km -105 1.5 867.7MHz, SF9BW125, 4/5CR
2026-05-07 13:31:53 17.3125°C 59.875% 3.36V v5 52.0941 / 5.12531 1066 ttn.v3 0.374km -119 -2 868.5MHz, SF9BW125, 4/5CR
2026-05-07 13:16:05 16.4375°C 62.3125% 3.36V v5 52.0941 / 5.12531 1065 ttn.v3 0.374km -115 0 867.5MHz, SF9BW125, 4/5CR
2026-05-07 13:00:18 16.3125°C 62.125% 3.36V v5 52.0941 / 5.12531 1064 ttn.v3 0.374km -114 -3.2 868.3MHz, SF9BW125, 4/5CR
2026-05-07 12:44:30 16.0625°C 62.9375% 3.36V v5 52.0941 / 5.12531 1063 ttn.v3 0.374km -115 1.8 867.3MHz, SF9BW125, 4/5CR
1.893km -103 -6.5 867.3MHz, SF9BW125, 4/5CR
- -120 -8 867.3MHz, SF9BW125, 4/5CR
2026-05-07 12:28:42 16.25°C 62.25% 3.36V v5 52.0941 / 5.12531 1062 ttn.v3 0.374km -118 -0.8 868.1MHz, SF9BW125, 4/5CR
2026-05-07 12:12:54 16.0625°C 62.75% 3.36V v5 52.0941 / 5.12531 1061 ttn.v3 0.374km -117 2 867.1MHz, SF9BW125, 4/5CR
1.893km -109 -4.75 867.1MHz, SF9BW125, 4/5CR
2026-05-07 11:57:07 15.6875°C 64.375% 3.36V v5 52.0941 / 5.12531 1060 ttn.v3 0.374km -114 1.2 868.5MHz, SF9BW125, 4/5CR
2026-05-07 11:41:19 14.9375°C 67.25% 3.36V v5 52.0941 / 5.12531 1059 ttn.v3 0.374km -117 2.2 867.9MHz, SF9BW125, 4/5CR
1.893km -104 -9 867.9MHz, SF9BW125, 4/5CR
2026-05-07 11:25:32 14.3125°C 69.75% 3.36V v5 52.0941 / 5.12531 1058 ttn.v3 0.374km -119 0.2 868.3MHz, SF9BW125, 4/5CR
2026-05-07 11:09:45 13.75°C 72.875% 3.36V v5 52.0941 / 5.12531 1057 ttn.v3 0.374km -117 2 867.7MHz, SF9BW125, 4/5CR
- -120 -9.75 867.7MHz, SF9BW125, 4/5CR
1.893km -105 -10.25 867.7MHz, SF9BW125, 4/5CR
2026-05-07 10:55:36 13.0625°C 74.9375% 3.36V v5 52.0941 / 5.12531 1056 ttn.v3 0.374km -118 1.5 868.1MHz, SF12BW125, 4/5CR
1.893km -83 -7.75 868.1MHz, SF12BW125, 4/5CR
- -114 -15.25 868.1MHz, SF12BW125, 4/5CR
- -126 -19.5 868.1MHz, SF12BW125, 4/5CR
- -111 -22.8 868.1MHz, SF12BW125, 4/5CR
2026-05-07 10:38:16 12.75°C 74% 3.36V v5 52.0942 / 5.12518 1055 ttn.v3 0.375km -114 -2.2 867.5MHz, SF9BW125, 4/5CR
- -114 -13.25 867.5MHz, SF9BW125, 4/5CR
2026-05-07 10:22:30 12.4375°C 73.375% 3.36V v5 52.0942 / 5.12518 1054 ttn.v3 0.375km -117 -0.2 868.5MHz, SF9BW125, 4/5CR
2026-05-07 10:06:43 12.0625°C 77.0625% 3.36V v5 52.0942 / 5.12518 1053 ttn.v3 0.375km -114 3 867.3MHz, SF9BW125, 4/5CR
2026-05-07 09:50:57 11.5°C 80.3125% 3.36V v5 52.0942 / 5.12518 1052 ttn.v3 0.375km -117 -2 868.3MHz, SF9BW125, 4/5CR
2026-05-07 09:35:10 11.1875°C 80.9375% 3.36V v5 52.0942 / 5.12518 1051 ttn.v3 0.375km -117 2.5 867.1MHz, SF9BW125, 4/5CR
- -113 -14 867.1MHz, SF9BW125, 4/5CR
2026-05-07 09:19:24 10.8125°C 80.125% 3.36V v5 52.0942 / 5.12518 1050 ttn.v3 0.375km -119 2.8 868.1MHz, SF9BW125, 4/5CR
2026-05-07 09:03:38 10.5625°C 83.5625% 3.36V v5 52.0942 / 5.12518 1049 ttn.v3 1.901km -107 -5.25 867.9MHz, SF9BW125, 4/5CR
2026-05-07 08:47:52 10.25°C 86.25% 3.36V v5 52.0942 / 5.12518 1048 ttn.v3 0.375km -117 1 868.5MHz, SF9BW125, 4/5CR
2026-05-07 08:32:06 9.8125°C 89.875% 3.36V v5 52.0942 / 5.12518 1047 ttn.v3 0.375km -114 1 867.7MHz, SF9BW125, 4/5CR
2026-05-07 08:16:20 9.5°C 92.4375% 3.36V v5 52.0942 / 5.12518 1046 ttn.v3 0.375km -115 -0.5 868.3MHz, SF9BW125, 4/5CR
2026-05-07 08:00:34 9.3125°C 93.5625% 3.36V v5 52.0942 / 5.12518 1045 ttn.v3 0.375km -115 1.5 867.5MHz, SF9BW125, 4/5CR
2026-05-07 07:44:49 9.0625°C 94.625% 3.36V v5 52.0942 / 5.12518 1044 ttn.v3 0.375km -119 3 868.1MHz, SF9BW125, 4/5CR
2026-05-07 07:29:03 8.9375°C 95.25% 3.36V v5 52.0942 / 5.12518 1043 ttn.v3 0.375km -114 5 867.3MHz, SF9BW125, 4/5CR
2026-05-07 07:13:17 8.875°C 95% 3.36V v5 52.0942 / 5.12518 1042 ttn.v3 0.375km -114 1.2 868.5MHz, SF9BW125, 4/5CR
2026-05-07 06:57:32 8.875°C 95.1875% 3.36V v5 52.0942 / 5.12518 1041 ttn.v3 0.375km -115 4.5 867.1MHz, SF9BW125, 4/5CR
- -120 -7.5 867.1MHz, SF9BW125, 4/5CR
2026-05-07 06:41:46 8.75°C 95.6875% 3.36V v5 52.0942 / 5.12518 1040 ttn.v3 0.375km -111 0.8 868.3MHz, SF9BW125, 4/5CR
2026-05-07 06:26:00 8.625°C 95.8125% 3.36V v5 52.0942 / 5.12518 1039 ttn.v3 0.375km -117 2.8 867.9MHz, SF9BW125, 4/5CR
1.901km -109 -10.5 867.9MHz, SF9BW125, 4/5CR
2026-05-07 06:10:15 8.4375°C 95.8125% 3.36V v5 52.0942 / 5.12518 1038 ttn.v3 0.375km -120 1.2 868.1MHz, SF9BW125, 4/5CR
2026-05-07 05:54:29 8.375°C 95.1875% 3.36V v5 52.0942 / 5.12518 1037 ttn.v3 0.375km -114 3.5 867.7MHz, SF9BW125, 4/5CR
- -119 -6.25 867.7MHz, SF9BW125, 4/5CR
1.901km -107 -10.5 867.7MHz, SF9BW125, 4/5CR
2026-05-07 05:38:44 8.375°C 95% 3.36V v5 52.0942 / 5.12518 1036 ttn.v3 0.375km -117 1.2 868.5MHz, SF9BW125, 4/5CR
2026-05-07 05:22:58 8.375°C 94.3125% 3.36V v5 52.0942 / 5.12518 1035 ttn.v3 0.375km -115 2 867.5MHz, SF9BW125, 4/5CR
2026-05-07 05:07:13 8.25°C 93.75% 3.36V v5 52.0942 / 5.12518 1034 ttn.v3 0.375km -114 -3.8 868.3MHz, SF9BW125, 4/5CR
2026-05-07 04:51:27 8.3125°C 93.375% 3.36V v5 52.0942 / 5.12518 1033 ttn.v3 0.375km -115 4.8 867.3MHz, SF9BW125, 4/5CR
2026-05-07 04:35:42 8.4375°C 92.0625% 3.36V v5 52.0942 / 5.12518 1032 ttn.v3 0.375km -117 2 868.1MHz, SF9BW125, 4/5CR
2026-05-07 04:19:56 8.625°C 90.5% 3.36V v5 52.0942 / 5.12518 1031 ttn.v3 0.375km -115 4.2 867.1MHz, SF9BW125, 4/5CR
- -120 -6.5 867.1MHz, SF9BW125, 4/5CR
2026-05-07 04:04:10 8.875°C 89.5625% 3.36V v5 52.0942 / 5.12518 1030 ttn.v3 0.375km -117 2 868.5MHz, SF9BW125, 4/5CR
2026-05-07 03:48:25 9.0625°C 88.5% 3.36V v5 52.0942 / 5.12518 1029 ttn.v3 0.375km -119 2.5 867.9MHz, SF9BW125, 4/5CR
1.901km -101 -12 867.9MHz, SF9BW125, 4/5CR
2026-05-07 03:32:39 9.25°C 87.4375% 3.36V v5 52.0942 / 5.12518 1028 ttn.v3 0.375km -113 -0.8 868.3MHz, SF9BW125, 4/5CR
2026-05-07 03:16:53 9.4375°C 86.75% 3.36V v5 52.0942 / 5.12518 1027 ttn.v3 0.375km -113 2.2 867.7MHz, SF9BW125, 4/5CR
- -126 -15.5 867.7MHz, SF9BW125, 4/5CR
2026-05-07 03:01:07 9.5625°C 86.125% 3.36V v5 52.0942 / 5.12518 1026 ttn.v3 0.375km -118 2.2 868.1MHz, SF9BW125, 4/5CR
1.901km -108 -10.75 868.1MHz, SF9BW125, 4/5CR
2026-05-07 02:45:21 9.625°C 86% 3.36V v5 52.0942 / 5.12518 1025 ttn.v3 0.375km -114 1.8 867.5MHz, SF9BW125, 4/5CR
2026-05-07 02:29:35 9.75°C 85.4375% 3.36V v5 52.0942 / 5.12518 1024 ttn.v3 0.375km -117 1.5 868.5MHz, SF9BW125, 4/5CR
2026-05-07 02:13:49 9.9375°C 84.3125% 3.36V v5 52.0942 / 5.12518 1023 ttn.v3 0.375km -114 3 867.3MHz, SF9BW125, 4/5CR
- -122 -11.25 867.3MHz, SF9BW125, 4/5CR
2026-05-07 01:58:04 10.25°C 83.0625% 3.36V v5 52.0942 / 5.12518 1022 ttn.v3 0.375km -115 -2 868.3MHz, SF9BW125, 4/5CR
2026-05-07 01:42:17 10.5°C 81.625% 3.36V v5 52.0942 / 5.12518 1021 ttn.v3 0.375km -115 3.5 867.1MHz, SF9BW125, 4/5CR
2026-05-07 01:26:31 10.9375°C 81.125% 3.36V v5 52.0942 / 5.12518 1020 ttn.v3 0.375km -120 2.2 868.1MHz, SF9BW125, 4/5CR
2026-05-07 01:10:45 11.0625°C 79.75% 3.36V v5 52.0942 / 5.12518 1019 ttn.v3 0.375km -119 2 867.9MHz, SF9BW125, 4/5CR
1.901km -109 -6.5 867.9MHz, SF9BW125, 4/5CR
2026-05-07 00:54:59 11.3125°C 78.75% 3.36V v5 52.0942 / 5.12518 1018 ttn.v3 0.375km -117 0 868.5MHz, SF9BW125, 4/5CR
2026-05-07 00:39:12 11.5625°C 78.6875% 3.36V v5 52.0942 / 5.12518 1017 ttn.v3 0.375km -114 4.2 867.7MHz, SF9BW125, 4/5CR
1.901km -107 -10.25 867.7MHz, SF9BW125, 4/5CR
2026-05-07 00:23:26 11.6875°C 77.8125% 3.36V v5 52.0942 / 5.12518 1016 ttn.v3 0.375km -115 1.5 868.3MHz, SF9BW125, 4/5CR
2026-05-07 00:07:40 11.75°C 76.6875% 3.36V v5 52.0942 / 5.12518 1015 ttn.v3 0.375km -112 2.8 867.5MHz, SF9BW125, 4/5CR
2026-05-06 23:51:53 11.875°C 75.9375% 3.36V v5 52.0942 / 5.12518 1014 ttn.v3 0.375km -115 1.8 868.1MHz, SF9BW125, 4/5CR
2026-05-06 23:36:07 11.875°C 75.1875% 3.36V v5 52.0942 / 5.12518 1013 ttn.v3 0.375km -115 2.8 867.3MHz, SF9BW125, 4/5CR
1.901km -105 -5.25 867.3MHz, SF9BW125, 4/5CR
2026-05-06 23:20:20 12°C 74.8125% 3.36V v5 52.0942 / 5.12518 1012 ttn.v3 0.375km -117 1.2 868.5MHz, SF9BW125, 4/5CR
2026-05-06 23:04:34 12.125°C 74.9375% 3.36V v5 52.0942 / 5.12518 1011 ttn.v3 0.375km -117 2.5 867.1MHz, SF9BW125, 4/5CR
1.901km -109 -11 867.1MHz, SF9BW125, 4/5CR
2026-05-06 22:48:47 12.25°C 75.0625% 3.36V v5 52.0942 / 5.12518 1010 ttn.v3 0.375km -115 -0.5 868.3MHz, SF9BW125, 4/5CR
2026-05-06 22:33:00 12.375°C 75% 3.36V v5 52.0942 / 5.12518 1009 ttn.v3 0.375km -117 3 867.9MHz, SF9BW125, 4/5CR
1.901km -107 -3.25 867.9MHz, SF9BW125, 4/5CR
- -128 -14 867.9MHz, SF9BW125, 4/5CR
2026-05-06 22:17:14 12.625°C 75.1875% 3.36V v5 52.0942 / 5.12518 1008 ttn.v3 0.375km -120 0 868.1MHz, SF9BW125, 4/5CR
1.901km -107 -10.75 868.1MHz, SF9BW125, 4/5CR
- -125 -14.75 868.1MHz, SF9BW125, 4/5CR
2026-05-06 22:01:27 12.8125°C 76.5% 3.36V v5 52.0942 / 5.12518 1007 ttn.v3 0.375km -117 1.2 867.7MHz, SF9BW125, 4/5CR
2026-05-06 21:45:40 12.9375°C 76.25% 3.36V v5 52.0942 / 5.12518 1006 ttn.v3 0.375km -115 0.5 868.5MHz, SF9BW125, 4/5CR
2026-05-06 21:29:53 13.125°C 73.6875% 3.36V v5 52.0942 / 5.12518 1005 ttn.v3 0.375km -117 -0.2 867.5MHz, SF9BW125, 4/5CR
2026-05-06 21:14:07 13.3125°C 66.75% 3.36V v5 52.0942 / 5.12518 1004 ttn.v3 0.375km -114 -1.2 868.3MHz, SF9BW125, 4/5CR
2026-05-06 20:58:20 13.3125°C 65.8125% 3.36V v5 52.0942 / 5.12518 1003 ttn.v3 0.375km -114 3 867.3MHz, SF9BW125, 4/5CR
2026-05-06 20:42:33 13.375°C 66.0625% 3.36V v5 52.0942 / 5.12518 1002 ttn.v3 0.375km -119 -4 868.1MHz, SF9BW125, 4/5CR
1.901km -104 -14 868.1MHz, SF9BW125, 4/5CR
2026-05-06 20:26:46 13.375°C 65.625% 3.36V v5 52.0942 / 5.12518 1001 ttn.v3 0.375km -119 2.8 867.1MHz, SF9BW125, 4/5CR
1.901km -109 -8.75 867.1MHz, SF9BW125, 4/5CR
2026-05-06 20:10:59 13.5625°C 65.1875% 3.36V v5 52.0942 / 5.12518 1000 ttn.v3 0.375km -115 2.2 868.5MHz, SF9BW125, 4/5CR
2026-05-06 19:55:12 13.8125°C 63.9375% 3.36V v5 52.0942 / 5.12518 999 ttn.v3 0.375km -119 2 867.9MHz, SF9BW125, 4/5CR
1.901km -101 -2.5 867.9MHz, SF9BW125, 4/5CR
2026-05-06 19:39:25 14.0625°C 62.75% 3.36V v5 52.0942 / 5.12518 998 ttn.v3 0.375km -117 -0.8 868.3MHz, SF9BW125, 4/5CR
2026-05-06 19:07:51 14.4375°C 60.8125% 3.36V v5 52.0942 / 5.12518 996 ttn.v3 0.375km -119 1.5 868.1MHz, SF9BW125, 4/5CR
1.901km -109 -7 868.1MHz, SF9BW125, 4/5CR
2026-05-06 18:52:03 14.6875°C 59.75% 3.36V v5 52.0942 / 5.12518 995 ttn.v3 0.375km -115 0.5 867.5MHz, SF9BW125, 4/5CR
2026-05-06 18:20:29 14.6875°C 58.75% 3.36V v5 52.0942 / 5.12518 993 ttn.v3 0.375km -117 3 867.3MHz, SF9BW125, 4/5CR
- -120 -10.5 867.3MHz, SF9BW125, 4/5CR
2026-05-06 18:04:41 14.875°C 58.25% 3.36V v5 52.0942 / 5.12518 992 ttn.v3 0.375km -115 -4.5 868.3MHz, SF9BW125, 4/5CR
2026-05-06 17:48:54 14.9375°C 58.6875% 3.36V v5 52.0942 / 5.12518 991 ttn.v3 0.375km -115 3.2 867.1MHz, SF9BW125, 4/5CR
- -115 -11.5 867.1MHz, SF9BW125, 4/5CR
1.901km -104 -11.75 867.1MHz, SF9BW125, 4/5CR
2026-05-06 17:33:07 15.0625°C 57.8125% 3.36V v5 52.0942 / 5.12518 990 ttn.v3 0.375km -118 1.8 868.1MHz, SF9BW125, 4/5CR
2026-05-06 17:17:19 14.8125°C 60.625% 3.36V v5 52.0942 / 5.12518 989 ttn.v3 0.375km -117 2.8 867.9MHz, SF9BW125, 4/5CR
1.901km -109 -2.25 867.9MHz, SF9BW125, 4/5CR
2026-05-06 17:01:32 14.5°C 60.9375% 3.36V v5 52.0942 / 5.12518 988 ttn.v3 0.375km -117 2 868.5MHz, SF9BW125, 4/5CR
2026-05-06 16:45:45 14.375°C 61.125% 3.36V v5 52.0942 / 5.12518 987 ttn.v3 0.375km -115 3.5 867.7MHz, SF9BW125, 4/5CR
2026-05-06 16:29:58 14.375°C 61% 3.36V v5 52.0942 / 5.12518 986 ttn.v3 0.375km -114 -1 868.3MHz, SF9BW125, 4/5CR
2026-05-06 16:14:11 14.3125°C 61.5625% 3.36V v5 52.0942 / 5.12518 985 ttn.v3 0.375km -115 0 867.5MHz, SF9BW125, 4/5CR
2026-05-06 15:58:23 14.125°C 61.0625% 3.36V v5 52.0942 / 5.12518 984 ttn.v3 0.375km -117 3.2 868.1MHz, SF9BW125, 4/5CR
1.901km -101 -11 868.1MHz, SF9BW125, 4/5CR
2026-05-06 15:42:36 14.0625°C 60.6875% 3.36V v5 52.0942 / 5.12518 983 ttn.v3 0.375km -117 1.5 867.3MHz, SF9BW125, 4/5CR
2026-05-06 15:26:49 14.3125°C 61.0625% 3.36V v5 52.0942 / 5.12518 982 ttn.v3 0.375km -114 0 868.5MHz, SF9BW125, 4/5CR
2026-05-06 15:11:02 14.5°C 59.25% 3.36V v5 52.0942 / 5.12518 981 ttn.v3 0.375km -117 2.5 867.1MHz, SF9BW125, 4/5CR
- -122 -7 867.1MHz, SF9BW125, 4/5CR
2026-05-06 14:55:14 14.875°C 57.375% 3.36V v5 52.0942 / 5.12518 980 ttn.v3 0.375km -115 1.5 868.3MHz, SF9BW125, 4/5CR
2026-05-06 14:39:27 15.125°C 54.9375% 3.36V v5 52.0942 / 5.12518 979 ttn.v3 0.375km -119 2.2 867.9MHz, SF9BW125, 4/5CR
2026-05-06 14:23:40 15.4375°C 54.625% 3.36V v5 52.0942 / 5.12518 978 ttn.v3 0.375km -115 1.2 868.1MHz, SF9BW125, 4/5CR
1.901km -104 -7 868.1MHz, SF9BW125, 4/5CR
2026-05-06 14:07:52 15.3125°C 57.0625% 3.36V v5 52.0942 / 5.12518 977 ttn.v3 0.375km -115 1.5 867.7MHz, SF9BW125, 4/5CR
2026-05-06 13:52:05 15.5°C 56.0625% 3.36V v5 52.0942 / 5.12518 976 ttn.v3 0.375km -114 0.8 868.5MHz, SF9BW125, 4/5CR
2026-05-06 13:36:17 15.75°C 61.4375% 3.36V v5 52.0942 / 5.12518 975 ttn.v3 0.375km -114 1.2 867.5MHz, SF9BW125, 4/5CR
2026-05-06 13:20:29 15.6875°C 61% 3.36V v5 52.0942 / 5.12518 974 ttn.v3 0.375km -115 0 868.3MHz, SF9BW125, 4/5CR
2026-05-06 13:04:42 16.25°C 57.375% 3.36V v5 52.0942 / 5.12518 973 ttn.v3 0.375km -117 3 867.3MHz, SF9BW125, 4/5CR
2026-05-06 12:48:54 16.125°C 54% 3.36V v5 52.0942 / 5.12518 972 ttn.v3 0.375km -119 3.5 868.1MHz, SF9BW125, 4/5CR
1.901km -104 -9.25 868.1MHz, SF9BW125, 4/5CR
2026-05-06 12:33:06 15.0625°C 63% 3.36V v5 52.0942 / 5.12518 971 ttn.v3 0.375km -119 1.8 867.1MHz, SF9BW125, 4/5CR
2026-05-06 12:17:19 15.1875°C 65% 3.36V v5 52.0942 / 5.12518 970 ttn.v3 0.375km -112 -0.2 868.5MHz, SF9BW125, 4/5CR
2026-05-06 12:01:31 15.875°C 59% 3.36V v5 52.0942 / 5.12518 969 ttn.v3 0.375km -119 1.8 867.9MHz, SF9BW125, 4/5CR
1.901km -108 -6.25 867.9MHz, SF9BW125, 4/5CR
2026-05-06 11:45:44 15.5°C 63.1875% 3.36V v5 52.0942 / 5.12518 968 ttn.v3 0.375km -114 -0.5 868.3MHz, SF9BW125, 4/5CR
2026-05-06 11:29:56 14.9375°C 62.9375% 3.36V v5 52.0942 / 5.12518 967 ttn.v3 0.375km -117 1.2 867.7MHz, SF9BW125, 4/5CR
1.901km -103 -8.75 867.7MHz, SF9BW125, 4/5CR
2026-05-06 11:14:09 14.5°C 68.1875% 3.36V v5 52.0942 / 5.12518 966 ttn.v3 0.375km -120 2.2 868.1MHz, SF9BW125, 4/5CR
2026-05-06 10:58:22 14°C 69.0625% 3.36V v5 52.0942 / 5.12518 965 ttn.v3 0.375km -117 -1.5 867.5MHz, SF9BW125, 4/5CR
2026-05-06 10:26:48 13.875°C 73.3125% 3.36V v5 52.0942 / 5.12518 963 ttn.v3 0.375km -114 1.5 867.3MHz, SF9BW125, 4/5CR
2026-05-06 09:55:14 13.4375°C 75.1875% 3.36V v5 52.0942 / 5.12518 961 ttn.v3 0.375km -114 3.8 867.1MHz, SF9BW125, 4/5CR
1.901km -109 -10 867.1MHz, SF9BW125, 4/5CR
- -125 -11.75 867.1MHz, SF9BW125, 4/5CR
2026-05-06 09:40:42 13.125°C 74.6875% 3.36V v5 52.0942 / 5.12518 960 ttn.v3 0.375km -119 1.2 868.1MHz, SF12BW125, 4/5CR
2026-05-06 09:23:44 13°C 77.0625% 3.36V v5 52.094 / 5.12524 959 ttn.v3 0.385km -117 0.5 867.9MHz, SF9BW125, 4/5CR
1.898km -108 -4.5 867.9MHz, SF9BW125, 4/5CR
- -121 -9.5 867.9MHz, SF9BW125, 4/5CR
2026-05-06 09:07:57 12.75°C 79.6875% 3.36V v5 52.094 / 5.12524 958 ttn.v3 0.385km -115 1.8 868.5MHz, SF9BW125, 4/5CR
2026-05-06 08:52:10 12.5625°C 85.5% 3.36V v5 52.094 / 5.12524 957 ttn.v3 0.385km -115 2.5 867.7MHz, SF9BW125, 4/5CR
2026-05-06 08:20:37 11.8125°C 89.4375% 3.36V v5 52.094 / 5.12524 955 ttn.v3 0.385km -114 1.8 867.5MHz, SF9BW125, 4/5CR
2026-05-06 08:04:51 11.6875°C 90.5% 3.36V v5 52.094 / 5.12524 954 ttn.v3 0.385km -117 2.5 868.1MHz, SF9BW125, 4/5CR
2026-05-06 07:49:04 11.4375°C 91.1875% 3.36V v5 52.094 / 5.12524 953 ttn.v3 0.385km -115 3.8 867.3MHz, SF9BW125, 4/5CR
1.898km -101 -9 867.3MHz, SF9BW125, 4/5CR
2026-05-06 07:33:18 11.25°C 91.75% 3.36V v5 52.094 / 5.12524 952 ttn.v3 0.385km -114 1.8 868.5MHz, SF9BW125, 4/5CR
2026-05-06 07:17:32 11.0625°C 92% 3.36V v5 52.094 / 5.12524 951 ttn.v3 0.385km -117 3.2 867.1MHz, SF9BW125, 4/5CR
1.898km -108 -9.5 867.1MHz, SF9BW125, 4/5CR
2026-05-06 07:01:45 10.875°C 92.5625% 3.36V v5 52.094 / 5.12524 950 ttn.v3 0.385km -117 1.2 868.3MHz, SF9BW125, 4/5CR
2026-05-06 06:45:59 10.75°C 92.9375% 3.36V v5 52.094 / 5.12524 949 ttn.v3 0.385km -115 3 867.9MHz, SF9BW125, 4/5CR
1.898km -103 -6.25 867.9MHz, SF9BW125, 4/5CR
2026-05-06 06:30:13 10.625°C 92.9375% 3.36V v5 52.094 / 5.12524 948 ttn.v3 0.385km -119 2 868.1MHz, SF9BW125, 4/5CR
2026-05-06 06:14:27 10.625°C 91.3125% 3.36V v5 52.094 / 5.12524 947 ttn.v3 0.385km -113 3.5 867.7MHz, SF9BW125, 4/5CR
1.898km -96 -7 867.7MHz, SF9BW125, 4/5CR
- -122 -11.25 867.7MHz, SF9BW125, 4/5CR
2026-05-06 05:58:41 10.6875°C 89.5% 3.36V v5 52.094 / 5.12524 946 ttn.v3 0.385km -115 1.5 868.5MHz, SF9BW125, 4/5CR
2026-05-06 05:42:55 10.625°C 89.6875% 3.36V v5 52.094 / 5.12524 945 ttn.v3 0.385km -113 2.2 867.5MHz, SF9BW125, 4/5CR
2026-05-06 05:27:08 10.5625°C 90.125% 3.36V v5 52.094 / 5.12524 944 ttn.v3 0.385km -117 -2.5 868.3MHz, SF9BW125, 4/5CR
2026-05-06 05:11:22 10.5625°C 90% 3.36V v5 52.094 / 5.12524 943 ttn.v3 0.385km -114 3.2 867.3MHz, SF9BW125, 4/5CR
2026-05-06 04:55:36 10.5°C 89.5% 3.36V v5 52.094 / 5.12524 942 ttn.v3 0.385km -119 3 868.1MHz, SF9BW125, 4/5CR
2026-05-06 04:39:50 10.5°C 89.25% 3.36V v5 52.094 / 5.12524 941 ttn.v3 0.385km -114 5.5 867.1MHz, SF9BW125, 4/5CR
1.898km -109 -9 867.1MHz, SF9BW125, 4/5CR
2026-05-06 04:24:04 10.5°C 89.0625% 3.36V v5 52.094 / 5.12524 940 ttn.v3 0.385km -115 2 868.5MHz, SF9BW125, 4/5CR
2026-05-06 04:08:18 10.5625°C 88.5% 3.36V v5 52.094 / 5.12524 939 ttn.v3 0.385km -115 3.2 867.9MHz, SF9BW125, 4/5CR
1.898km -109 -5 867.9MHz, SF9BW125, 4/5CR
- -122 -10 867.9MHz, SF9BW125, 4/5CR
2026-05-06 03:52:31 10.625°C 87.25% 3.36V v5 52.094 / 5.12524 938 ttn.v3 0.385km -109 -8 868.3MHz, SF9BW125, 4/5CR
2026-05-06 03:36:45 10.75°C 86.6875% 3.36V v5 52.094 / 5.12524 937 ttn.v3 0.385km -114 2.8 867.7MHz, SF9BW125, 4/5CR
2026-05-06 03:20:59 10.875°C 86.625% 3.36V v5 52.094 / 5.12524 936 ttn.v3 0.385km -117 3 868.1MHz, SF9BW125, 4/5CR
2026-05-06 03:05:13 10.9375°C 87.25% 3.36V v5 52.094 / 5.12524 935 ttn.v3 0.385km -115 3 867.5MHz, SF9BW125, 4/5CR
2026-05-06 02:49:27 10.875°C 87.0625% 3.36V v5 52.094 / 5.12524 934 ttn.v3 0.385km -117 0.2 868.5MHz, SF9BW125, 4/5CR
2026-05-06 02:33:40 10.875°C 87.25% 3.36V v5 52.094 / 5.12524 933 ttn.v3 0.385km -115 3 867.3MHz, SF9BW125, 4/5CR
1.898km -104 -7 867.3MHz, SF9BW125, 4/5CR
2026-05-06 02:17:54 10.75°C 88% 3.36V v5 52.094 / 5.12524 932 ttn.v3 0.385km -117 0.5 868.3MHz, SF9BW125, 4/5CR
2026-05-06 02:02:08 10.8125°C 88.375% 3.36V v5 52.094 / 5.12524 931 ttn.v3 0.385km -113 4.2 867.1MHz, SF9BW125, 4/5CR
2026-05-06 01:46:22 10.8125°C 88.1875% 3.36V v5 52.094 / 5.12524 930 ttn.v3 0.385km -117 3 868.1MHz, SF9BW125, 4/5CR
2026-05-06 01:30:36 10.75°C 87.9375% 3.36V v5 52.094 / 5.12524 929 ttn.v3 0.385km -115 4.5 867.9MHz, SF9BW125, 4/5CR
1.898km -109 -4.25 867.9MHz, SF9BW125, 4/5CR
2026-05-06 01:14:49 10.75°C 88.0625% 3.36V v5 52.094 / 5.12524 928 ttn.v3 0.385km -113 2.8 868.5MHz, SF9BW125, 4/5CR
- -120 -14.75 868.5MHz, SF9BW125, 4/5CR
2026-05-06 00:59:03 10.75°C 87.8125% 3.36V v5 52.094 / 5.12524 927 ttn.v3 0.385km -117 3.2 867.7MHz, SF9BW125, 4/5CR
1.898km -107 -5.5 867.7MHz, SF9BW125, 4/5CR
2026-05-06 00:43:17 10.75°C 87.1875% 3.36V v5 52.094 / 5.12524 926 ttn.v3 0.385km -114 -0.8 868.3MHz, SF9BW125, 4/5CR
2026-05-06 00:27:31 10.8125°C 86.125% 3.36V v5 52.094 / 5.12524 925 ttn.v3 0.385km -114 1.5 867.5MHz, SF9BW125, 4/5CR
2026-05-06 00:11:45 10.8125°C 84.75% 3.36V v5 52.094 / 5.12524 924 ttn.v3 0.385km -119 3 868.1MHz, SF9BW125, 4/5CR
2026-05-05 23:55:58 10.6875°C 83.8125% 3.36V v5 52.094 / 5.12524 923 ttn.v3 0.385km -117 3 867.3MHz, SF9BW125, 4/5CR
2026-05-05 23:40:12 10.6875°C 83.125% 3.36V v5 52.094 / 5.12524 922 ttn.v3 0.385km -115 2 868.5MHz, SF9BW125, 4/5CR
2026-05-05 23:24:26 10.875°C 82.9375% 3.36V v5 52.094 / 5.12524 921 ttn.v3 0.385km -117 2.5 867.1MHz, SF9BW125, 4/5CR
2026-05-05 23:08:40 11.0625°C 82.1875% 3.36V v5 52.094 / 5.12524 920 ttn.v3 0.385km -117 0.8 868.3MHz, SF9BW125, 4/5CR
2026-05-05 22:52:53 11.25°C 80.875% 3.36V v5 52.094 / 5.12524 919 ttn.v3 0.385km -119 2.8 867.9MHz, SF9BW125, 4/5CR
1.898km -105 -2.5 867.9MHz, SF9BW125, 4/5CR
2026-05-05 22:37:07 11.625°C 80.25% 3.36V v5 52.094 / 5.12524 918 ttn.v3 0.385km -118 1.5 868.1MHz, SF9BW125, 4/5CR
2026-05-05 22:21:21 11.9375°C 80.3125% 3.36V v5 52.094 / 5.12524 917 ttn.v3 0.385km -114 3.5 867.7MHz, SF9BW125, 4/5CR
1.898km -110 -5.25 867.7MHz, SF9BW125, 4/5CR
2026-05-05 22:05:34 12.0625°C 80.8125% 3.36V v5 52.094 / 5.12524 916 ttn.v3 0.385km -117 0.5 868.5MHz, SF9BW125, 4/5CR
2026-05-05 21:49:47 12.0625°C 81.375% 3.36V v5 52.094 / 5.12524 915 ttn.v3 0.385km -114 2.8 867.5MHz, SF9BW125, 4/5CR
2026-05-05 21:34:01 12.1875°C 81.1875% 3.36V v5 52.094 / 5.12524 914 ttn.v3 0.385km -115 0.5 868.3MHz, SF9BW125, 4/5CR
2026-05-05 21:18:14 12.3125°C 80.3125% 3.36V v5 52.094 / 5.12524 913 ttn.v3 0.385km -117 3.5 867.3MHz, SF9BW125, 4/5CR
1.898km -103 -10.5 867.3MHz, SF9BW125, 4/5CR
2026-05-05 21:02:27 12.5°C 80.25% 3.36V v5 52.094 / 5.12524 912 ttn.v3 0.385km -119 1.2 868.1MHz, SF9BW125, 4/5CR
2026-05-05 20:46:41 12.75°C 79.875% 3.36V v5 52.094 / 5.12524 911 ttn.v3 0.385km -119 3 867.1MHz, SF9BW125, 4/5CR
1.898km -108 -4.25 867.1MHz, SF9BW125, 4/5CR
2026-05-05 20:30:54 12.9375°C 79.5% 3.36V v5 52.094 / 5.12524 910 ttn.v3 0.385km -117 -0.5 868.5MHz, SF9BW125, 4/5CR
2026-05-05 20:15:07 13.125°C 79% 3.36V v5 52.094 / 5.12524 909 ttn.v3 0.385km -119 2 867.9MHz, SF9BW125, 4/5CR
1.898km -99 -2.25 867.9MHz, SF9BW125, 4/5CR
2026-05-05 19:59:20 13.5°C 77.1875% 3.36V v5 52.094 / 5.12524 908 ttn.v3 0.385km -119 -1.2 868.3MHz, SF9BW125, 4/5CR
2026-05-05 19:43:33 13.8125°C 76.5% 3.36V v5 52.094 / 5.12524 907 ttn.v3 0.385km -117 1.8 867.7MHz, SF9BW125, 4/5CR
2026-05-05 19:27:46 14.0625°C 76.25% 3.36V v5 52.094 / 5.12524 906 ttn.v3 0.385km -117 0.8 868.1MHz, SF9BW125, 4/5CR
1.898km -109 -5.5 868.1MHz, SF9BW125, 4/5CR
2026-05-05 19:11:59 14.3125°C 74.6875% 3.36V v5 52.094 / 5.12524 905 ttn.v3 0.385km -114 0.8 867.5MHz, SF9BW125, 4/5CR
2026-05-05 18:56:12 14.5625°C 73.8125% 3.36V v5 52.094 / 5.12524 904 ttn.v3 0.385km -114 0.5 868.5MHz, SF9BW125, 4/5CR
2026-05-05 18:40:24 14.875°C 72.9375% 3.36V v5 52.094 / 5.12524 903 ttn.v3 0.385km -115 3.5 867.3MHz, SF9BW125, 4/5CR
1.898km -104 -9.5 867.3MHz, SF9BW125, 4/5CR
2026-05-05 18:08:49 15.375°C 70.125% 3.36V v5 52.094 / 5.12524 901 ttn.v3 0.385km -114 3 867.1MHz, SF9BW125, 4/5CR
2026-05-05 17:53:02 15.6875°C 69.4375% 3.36V v5 52.094 / 5.12524 900 ttn.v3 0.385km -117 1 868.1MHz, SF9BW125, 4/5CR
1.898km -105 -4 868.1MHz, SF9BW125, 4/5CR
2026-05-05 17:37:14 15.9375°C 69.5% 3.36V v5 52.094 / 5.12524 899 ttn.v3 0.385km -117 2.8 867.9MHz, SF9BW125, 4/5CR
1.898km -109 -0.25 867.9MHz, SF9BW125, 4/5CR
2026-05-05 17:21:26 15.875°C 69.3125% 3.36V v5 52.094 / 5.12524 898 ttn.v3 0.385km -117 1.8 868.5MHz, SF9BW125, 4/5CR
2026-05-05 17:05:38 16.0625°C 68.625% 3.36V v5 52.094 / 5.12524 897 ttn.v3 0.385km -117 2 867.7MHz, SF9BW125, 4/5CR
2026-05-05 16:49:51 16.125°C 69.3125% 3.36V v5 52.094 / 5.12524 896 ttn.v3 0.385km -117 -0.5 868.3MHz, SF9BW125, 4/5CR
2026-05-05 16:34:03 16.25°C 68.1875% 3.36V v5 52.094 / 5.12524 895 ttn.v3 0.385km -114 2.5 867.5MHz, SF9BW125, 4/5CR
2026-05-05 16:18:15 16.5625°C 66.1875% 3.36V v5 52.094 / 5.12524 894 ttn.v3 0.385km -119 1.8 868.1MHz, SF9BW125, 4/5CR
2026-05-05 16:02:27 16.5625°C 66.6875% 3.36V v5 52.094 / 5.12524 893 ttn.v3 0.385km -112 3.2 867.3MHz, SF9BW125, 4/5CR
1.898km -105 -9.5 867.3MHz, SF9BW125, 4/5CR
2026-05-05 15:46:39 17.1875°C 65.8125% 3.36V v5 52.094 / 5.12524 892 ttn.v3 0.385km -113 1 868.5MHz, SF9BW125, 4/5CR
2026-05-05 15:30:50 17.6875°C 64.1875% 3.36V v5 52.094 / 5.12524 891 ttn.v3 0.385km -117 3.8 867.1MHz, SF9BW125, 4/5CR
1.898km -105 -10.5 867.1MHz, SF9BW125, 4/5CR
- -122 -13.5 867.1MHz, SF9BW125, 4/5CR
2026-05-05 15:15:02 17.6875°C 64.75% 3.36V v5 52.094 / 5.12524 890 ttn.v3 0.385km -117 1 868.3MHz, SF9BW125, 4/5CR
2026-05-05 14:59:14 17.4375°C 67.3125% 3.36V v5 52.094 / 5.12524 889 ttn.v3 0.385km -115 3.8 867.9MHz, SF9BW125, 4/5CR
1.898km -108 -4 867.9MHz, SF9BW125, 4/5CR
2026-05-05 14:43:26 16.875°C 68.5% 3.36V v5 52.094 / 5.12524 888 ttn.v3 0.385km -119 2.8 868.1MHz, SF9BW125, 4/5CR
1.898km -107 -8.75 868.1MHz, SF9BW125, 4/5CR
2026-05-05 14:27:38 16.375°C 71.3125% 3.36V v5 52.094 / 5.12524 887 ttn.v3 0.385km -115 2.8 867.7MHz, SF9BW125, 4/5CR
- -118 -7 867.7MHz, SF9BW125, 4/5CR
2026-05-05 14:11:50 16.125°C 72.75% 3.36V v5 52.094 / 5.12524 886 ttn.v3 0.385km -117 1.2 868.5MHz, SF9BW125, 4/5CR
2026-05-05 13:56:03 14.75°C 77.9375% 3.36V v5 52.094 / 5.12524 885 ttn.v3 0.385km -113 1.5 867.5MHz, SF9BW125, 4/5CR
- -113 -13.25 867.5MHz, SF9BW125, 4/5CR
2026-05-05 13:40:16 13.1875°C 85% 3.36V v5 52.094 / 5.12524 884 ttn.v3 0.385km -114 -8.2 868.3MHz, SF9BW125, 4/5CR
2026-05-05 13:24:29 13.1875°C 85.4375% 3.36V v5 52.094 / 5.12524 883 ttn.v3 0.385km -112 4.8 867.3MHz, SF9BW125, 4/5CR
2026-05-05 13:08:42 12.9375°C 86% 3.36V v5 52.094 / 5.12524 882 ttn.v3 0.385km -119 2.5 868.1MHz, SF9BW125, 4/5CR
2026-05-05 12:52:55 13.0625°C 85.9375% 3.36V v5 52.094 / 5.12524 881 ttn.v3 0.385km -114 3.5 867.1MHz, SF9BW125, 4/5CR
- -124 -10.5 867.1MHz, SF9BW125, 4/5CR
- -115 -13 867.1MHz, SF9BW125, 4/5CR
2026-05-05 12:37:08 13°C 87.125% 3.36V v5 52.094 / 5.12524 880 ttn.v3 0.385km -114 3.5 868.5MHz, SF9BW125, 4/5CR
2026-05-05 12:21:22 12.5°C 88.875% 3.36V v5 52.094 / 5.12524 879 ttn.v3 0.385km -117 2 867.9MHz, SF9BW125, 4/5CR
2026-05-05 12:05:35 12.4375°C 89.125% 3.36V v5 52.094 / 5.12524 878 ttn.v3 0.385km -117 1.5 868.3MHz, SF9BW125, 4/5CR
2026-05-05 11:49:48 12.1875°C 89.9375% 3.36V v5 52.094 / 5.12524 877 ttn.v3 0.385km -115 3.5 867.7MHz, SF9BW125, 4/5CR
2026-05-05 11:34:02 12.375°C 88.4375% 3.36V v5 52.094 / 5.12524 876 ttn.v3 0.385km -119 2.2 868.1MHz, SF9BW125, 4/5CR

Message count: 200
Node count: 1

Messages per node

Number of messages in list aboveNodes
200

Statistics per gateway

GatewayNumber of messagesNumber of nodesNodes
1991 (0.385km)
561 (1.898km)
211
91
11

Filter by dataset